Time;durP1;ratioP1;P1;durP2;ratioP2;P2;SDS_P1;SDS_P2;PMS_P1;PMS_P2;Temp;Humidity;BMP_temperature;BMP_pressure;BME280_temperature;BME280_humidity;BME280_pressure;Samples;Min_cycle;Max_cycle;Signal;HPM_P1;HPM_P2
2021/12/09 00:01:23;;;;;;;;;;;;;;;1.58;100.00;100068.19;5037995;28;19925;-77
2021/12/09 00:03:49;;;;;;;;;;;;;;;1.56;100.00;100062.03;5038972;28;19917;-77
2021/12/09 00:06:17;;;;;;;;;;;;;;;1.55;100.00;100057.63;5039231;28;19943;-77
2021/12/09 00:08:43;;;;;;;;;;;;;;;1.57;100.00;100066.41;5037744;28;19954;-77
2021/12/09 00:11:08;;;;;;;;;;;;;;;1.59;100.00;100072.59;5037683;28;19960;-80
2021/12/09 00:13:34;;;;;;;;;;;;;;;1.57;100.00;100067.31;5038527;28;19912;-77
2021/12/09 00:16:00;;;;;;;;;;;;;;;1.60;100.00;100076.97;5037507;28;19923;-78
2021/12/09 00:18:27;;;;;;;;;;;;;;;1.66;100.00;100074.72;5037741;28;19920;-77
2021/12/09 00:20:53;;;;;;;;;;;;;;;1.65;100.00;100079.81;5038027;28;19916;-78
2021/12/09 00:23:18;;;;;;;;;;;;;;;1.63;100.00;100078.84;5037375;28;19924;-79
2021/12/09 00:25:43;;;;;;;;;;;;;;;1.62;100.00;100075.38;5037921;28;19973;-77
2021/12/09 00:28:08;;;;;;;;;;;;;;;1.52;100.00;100088.59;5037380;28;20360;-77
2021/12/09 00:30:34;;;;;;;;;;;;;;;1.46;100.00;100090.81;5037889;28;20261;-77
2021/12/09 00:33:00;;;;;;;;;;;;;;;1.55;100.00;100086.19;5037382;28;20011;-77
2021/12/09 00:35:31;;;;;;;;;;;;;;;1.55;100.00;100086.19;5037063;28;20068;-75
2021/12/09 00:38:08;;;;;;;;;;;;;;;1.51;100.00;100089.38;5036604;28;19917;-77
2021/12/09 00:40:33;;;;;;;;;;;;;;;1.47;100.00;100080.53;5036772;28;20349;-77
2021/12/09 00:42:59;;;;;;;;;;;;;;;1.41;100.00;100088.88;5036641;28;19923;-76
2021/12/09 00:45:24;;;;;;;;;;;;;;;1.40;100.00;100080.97;5037134;28;19917;-77
2021/12/09 00:47:51;;;;;;;;;;;;;;;1.41;100.00;100082.75;5037091;28;20007;-77
2021/12/09 00:50:18;;;;;;;;;;;;;;;1.40;100.00;100078.41;5037201;28;19924;-76
2021/12/09 00:52:43;;;;;;;;;;;;;;;1.42;100.00;100067.28;5037295;28;19924;-75
2021/12/09 00:55:09;;;;;;;;;;;;;;;1.43;100.00;100076.88;5039974;28;20023;-75
2021/12/09 00:57:38;;;;;;;;;;;;;;;1.41;100.00;100073.28;5038996;28;19963;-77
2021/12/09 01:00:05;;;;;;;;;;;;;;;1.48;100.00;100077.16;5036949;28;20307;-75
2021/12/09 01:02:30;;;;;;;;;;;;;;;1.46;100.00;100076.16;5037270;28;19921;-78
2021/12/09 01:04:55;;;;;;;;;;;;;;;1.52;100.00;100079.09;5037232;28;20331;-76
2021/12/09 01:07:21;;;;;;;;;;;;;;;1.53;100.00;100077.41;5037188;28;19916;-77
2021/12/09 01:09:46;;;;;;;;;;;;;;;1.66;100.00;100079.03;5036761;28;20361;-77
2021/12/09 01:12:11;;;;;;;;;;;;;;;1.55;100.00;100078.41;5019331;28;19928;-79
2021/12/09 01:14:37;;;;;;;;;;;;;;;1.58;100.00;100078.56;5036703;28;20553;-77
2021/12/09 01:17:04;;;;;;;;;;;;;;;1.56;100.00;100078.47;5036848;28;19921;-75
2021/12/09 01:19:30;;;;;;;;;;;;;;;1.49;100.00;100071.16;5036515;28;19947;-76
2021/12/09 01:21:55;;;;;;;;;;;;;;;1.53;100.00;100067.03;5036995;28;19972;-76
2021/12/09 01:24:20;;;;;;;;;;;;;;;1.51;100.00;100069.53;5036501;28;20407;-74
2021/12/09 01:26:48;;;;;;;;;;;;;;;1.48;100.00;100076.25;5035966;28;19967;-77
2021/12/09 01:29:18;;;;;;;;;;;;;;;1.49;100.00;100078.03;5035293;28;19920;-76
2021/12/09 01:31:52;;;;;;;;;;;;;;;1.43;100.00;100076.88;5036093;28;19921;-77
2021/12/09 01:34:19;;;;;;;;;;;;;;;1.46;100.00;100088.22;5036347;28;19917;-77
2021/12/09 01:36:45;;;;;;;;;;;;;;;1.43;100.00;100089.84;5036054;28;20344;-77
2021/12/09 01:39:14;;;;;;;;;;;;;;;1.38;100.00;100087.75;5036749;28;19965;-78
2021/12/09 01:41:39;;;;;;;;;;;;;;;1.41;100.00;100094.06;5036204;28;19923;-78
2021/12/09 01:44:06;;;;;;;;;;;;;;;1.43;100.00;100086.34;5036236;28;19916;-77
2021/12/09 01:46:32;;;;;;;;;;;;;;;1.38;100.00;100088.69;5037097;28;19928;-74
2021/12/09 01:49:01;;;;;;;;;;;;;;;1.32;100.00;100083.13;5037022;28;19916;-77
2021/12/09 01:51:26;;;;;;;;;;;;;;;1.26;100.00;100085.34;5035988;28;20306;-76
2021/12/09 01:53:52;;;;;;;;;;;;;;;1.19;100.00;100088.34;5036471;28;19956;-77
2021/12/09 01:56:21;;;;;;;;;;;;;;;1.17;100.00;100083.06;5036093;28;19962;-75
2021/12/09 01:58:52;;;;;;;;;;;;;;;1.19;100.00;100091.81;5035672;28;19956;-74
2021/12/09 02:01:17;;;;;;;;;;;;;;;1.16;100.00;100090.75;5035445;28;19999;-76
2021/12/09 02:03:42;;;;;;;;;;;;;;;1.06;100.00;100087.59;5035611;28;19955;-75
2021/12/09 02:06:08;;;;;;;;;;;;;;;1.03;100.00;100094.28;5036481;28;19923;-77
2021/12/09 02:08:34;;;;;;;;;;;;;;;1.07;100.00;100086.81;5036125;28;19919;-76
2021/12/09 02:11:00;;;;;;;;;;;;;;;1.12;100.00;100097.47;5035562;28;20004;-77
2021/12/09 02:13:25;;;;;;;;;;;;;;;1.13;100.00;100098.34;5053630;28;19948;-79
2021/12/09 02:15:55;;;;;;;;;;;;;;;1.13;100.00;100093.16;5035568;28;20340;-75
2021/12/09 02:18:22;;;;;;;;;;;;;;;1.07;100.00;100091.06;5035726;28;19917;-75
2021/12/09 02:21:02;;;;;;;;;;;;;;;1.06;100.00;100086.72;5035836;28;20325;-77
2021/12/09 02:23:27;;;;;;;;;;;;;;;1.01;100.00;100096.78;5035822;28;19924;-75
2021/12/09 02:25:53;;;;;;;;;;;;;;;1.08;100.00;100098.94;5035635;28;19916;-75
2021/12/09 02:28:25;;;;;;;;;;;;;;;1.08;100.00;100096.34;5036009;28;20051;-74
2021/12/09 02:30:50;;;;;;;;;;;;;;;1.07;100.00;100098.84;5035251;28;20405;-74
2021/12/09 02:33:16;;;;;;;;;;;;;;;1.02;100.00;100105.47;5036225;28;20003;-76
2021/12/09 02:35:41;;;;;;;;;;;;;;;1.11;100.00;100093.06;5036052;28;19923;-76
2021/12/09 02:38:08;;;;;;;;;;;;;;;1.08;100.00;100088.56;5036923;28;20012;-76
2021/12/09 02:40:34;;;;;;;;;;;;;;;1.06;100.00;100097.97;5036392;28;19963;-77
2021/12/09 02:42:59;;;;;;;;;;;;;;;1.10;100.00;100098.16;5034912;28;19924;-75
2021/12/09 02:45:25;;;;;;;;;;;;;;;1.02;100.00;100093.38;5035099;28;20273;-77
2021/12/09 02:47:52;;;;;;;;;;;;;;;1.10;100.00;100092.97;5035547;28;20345;-78
2021/12/09 02:50:17;;;;;;;;;;;;;;;1.05;100.00;100109.13;5035585;28;19923;-75
2021/12/09 02:52:42;;;;;;;;;;;;;;;1.07;100.00;100102.38;5034938;28;19921;-76
2021/12/09 02:55:08;;;;;;;;;;;;;;;1.01;100.00;100101.06;5053102;28;19971;-77
2021/12/09 02:57:35;;;;;;;;;;;;;;;1.00;100.00;100107.06;5035291;28;20463;-74
2021/12/09 03:00:00;;;;;;;;;;;;;;;1.08;100.00;100098.06;5034994;28;19923;-76
2021/12/09 03:02:26;;;;;;;;;;;;;;;0.99;100.00;100100.97;5035212;28;19917;-76
2021/12/09 03:04:52;;;;;;;;;;;;;;;0.99;100.00;100097.50;5034512;28;19947;-77
2021/12/09 03:07:24;;;;;;;;;;;;;;;0.99;100.00;100093.19;5035312;28;19920;-77
2021/12/09 03:09:53;;;;;;;;;;;;;;;0.98;100.00;100096.59;5035269;28;19948;-75
2021/12/09 03:12:32;;;;;;;;;;;;;;;0.99;100.00;100097.50;5035304;28;20051;-77
2021/12/09 03:14:59;;;;;;;;;;;;;;;0.96;100.00;100103.38;5038769;28;19923;-78
2021/12/09 03:17:24;;;;;;;;;;;;;;;0.92;100.00;100101.41;5038849;28;19951;-75
2021/12/09 03:19:50;;;;;;;;;;;;;;;1.00;100.00;100105.38;5038494;28;19967;-76
2021/12/09 03:22:16;;;;;;;;;;;;;;;0.96;100.00;100100.78;5038839;28;19917;-77
2021/12/09 03:24:42;;;;;;;;;;;;;;;0.96;100.00;100100.78;5038717;28;20010;-76
2021/12/09 03:27:10;;;;;;;;;;;;;;;0.91;100.00;100099.59;5037921;28;19912;-76
2021/12/09 03:29:35;;;;;;;;;;;;;;;0.94;100.00;100097.19;5039109;28;20042;-77
2021/12/09 03:32:04;;;;;;;;;;;;;;;0.95;100.00;100096.41;5039162;28;20012;-78
2021/12/09 03:34:30;;;;;;;;;;;;;;;0.94;100.00;100098.91;5038104;28;19928;-77
2021/12/09 03:36:57;;;;;;;;;;;;;;;0.97;100.00;100110.34;5038426;28;19923;-78
2021/12/09 03:39:23;;;;;;;;;;;;;;;1.05;100.00;100111.72;5038568;28;19917;-77
2021/12/09 03:41:52;;;;;;;;;;;;;;;1.04;100.00;100115.13;5033306;28;19924;-76
2021/12/09 03:44:18;;;;;;;;;;;;;;;0.93;100.00;100107.47;5018240;28;19917;-79
2021/12/09 03:46:43;;;;;;;;;;;;;;;0.97;100.00;100110.34;5036212;28;19923;-78
2021/12/09 03:49:09;;;;;;;;;;;;;;;1.00;100.00;100110.53;5038246;28;20241;-77
2021/12/09 03:51:35;;;;;;;;;;;;;;;0.98;100.00;100112.16;5039008;28;20432;-78
2021/12/09 03:54:02;;;;;;;;;;;;;;;1.02;100.00;100106.34;5038315;28;19921;-78
2021/12/09 03:56:27;;;;;;;;;;;;;;;0.97;100.00;100115.53;5038386;28;19917;-78
2021/12/09 03:58:55;;;;;;;;;;;;;;;0.94;100.00;100112.75;5038503;28;20015;-78
2021/12/09 04:01:21;;;;;;;;;;;;;;;0.96;100.00;100118.94;5038678;28;19963;-77
2021/12/09 04:03:46;;;;;;;;;;;;;;;1.05;100.00;100119.50;5038145;28;19924;-78
2021/12/09 04:06:11;;;;;;;;;;;;;;;1.07;100.00;100117.91;5037994;28;20328;-78
2021/12/09 04:08:38;;;;;;;;;;;;;;;1.02;100.00;100121.91;5037973;28;19912;-78
2021/12/09 04:11:03;;;;;;;;;;;;;;;0.95;100.00;100122.34;5037658;28;19921;-77
2021/12/09 04:13:28;;;;;;;;;;;;;;;0.94;100.00;100123.13;5038117;28;20348;-78
2021/12/09 04:15:54;;;;;;;;;;;;;;;0.98;100.00;100121.63;5037482;28;19970;-77
2021/12/09 04:18:21;;;;;;;;;;;;;;;1.04;100.00;100124.59;5038297;28;20449;-77
2021/12/09 04:20:46;;;;;;;;;;;;;;;0.98;100.00;100125.13;5037290;28;20292;-76
2021/12/09 04:23:11;;;;;;;;;;;;;;;1.00;100.00;100114.84;5038792;28;19967;-77
2021/12/09 04:25:37;;;;;;;;;;;;;;;1.01;100.00;100119.22;5037977;28;19924;-77
2021/12/09 04:28:02;;;;;;;;;;;;;;;1.00;100.00;100126.09;5037449;28;19912;-77
2021/12/09 04:30:29;;;;;;;;;;;;;;;0.92;100.00;100126.41;5037852;28;19917;-76
2021/12/09 04:32:54;;;;;;;;;;;;;;;0.89;100.00;100127.13;5037712;28;20268;-76
2021/12/09 04:35:21;;;;;;;;;;;;;;;0.93;100.00;100117.84;5037556;28;19921;-78
2021/12/09 04:37:48;;;;;;;;;;;;;;;0.86;100.00;100116.56;5034444;28;19924;-78
2021/12/09 04:40:14;;;;;;;;;;;;;;;0.88;100.00;100115.84;5018575;28;19920;-78
2021/12/09 04:42:39;;;;;;;;;;;;;;;0.88;100.00;100122.75;5037951;28;20015;-79
2021/12/09 04:45:05;;;;;;;;;;;;;;;0.92;100.00;100122.16;5037516;28;19923;-78
2021/12/09 04:47:33;;;;;;;;;;;;;;;0.91;100.00;100122.94;5037369;28;19955;-78
2021/12/09 04:49:58;;;;;;;;;;;;;;;0.96;100.00;100124.09;5037777;28;20000;-78
2021/12/09 04:52:23;;;;;;;;;;;;;;;0.95;100.00;100129.19;5024080;28;20003;-77
2021/12/09 04:54:49;;;;;;;;;;;;;;;0.95;100.00;100129.19;5017547;28;19917;-80
2021/12/09 04:57:15;;;;;;;;;;;;;;;1.02;100.00;100136.56;5017476;28;19924;-79
2021/12/09 05:00:06;;;;;;;;;;;;;;;1.02;100.00;100139.16;5033599;28;19924;-78
2021/12/09 05:02:48;;;;;;;;;;;;;;;0.94;100.00;100141.28;5034295;28;19917;-77
2021/12/09 05:05:13;;;;;;;;;;;;;;;0.92;100.00;100147.16;5017401;28;19917;-79
2021/12/09 05:07:43;;;;;;;;;;;;;;;0.96;100.00;100151.75;5017928;28;19917;-77
2021/12/09 05:10:08;;;;;;;;;;;;;;;0.91;100.00;100156.63;5026337;28;19952;-79
2021/12/09 05:12:34;;;;;;;;;;;;;;;0.95;100.00;100155.13;5036946;28;19986;-76
2021/12/09 05:14:59;;;;;;;;;;;;;;;0.95;100.00;100152.53;5037675;28;19916;-76
2021/12/09 05:17:28;;;;;;;;;;;;;;;0.98;100.00;100158.84;5037176;28;19963;-78
2021/12/09 05:19:53;;;;;;;;;;;;;;;1.02;100.00;100152.13;5036855;28;20015;-78
2021/12/09 05:22:18;;;;;;;;;;;;;;;0.96;100.00;100156.94;5037031;28;19978;-77
2021/12/09 05:24:48;;;;;;;;;;;;;;;0.89;100.00;100153.06;5036440;28;20271;-79
2021/12/09 05:27:16;;;;;;;;;;;;;;;0.89;100.00;100153.06;5036936;28;19955;-79
2021/12/09 05:29:43;;;;;;;;;;;;;;;0.93;100.00;100154.13;5036683;28;19927;-76
2021/12/09 05:32:11;;;;;;;;;;;;;;;0.95;100.00;100153.44;5037147;28;19985;-79
2021/12/09 05:34:38;;;;;;;;;;;;;;;1.00;100.00;100148.56;5035889;28;19917;-79
2021/12/09 05:37:07;;;;;;;;;;;;;;;1.04;100.00;100146.25;5036391;28;19920;-81
2021/12/09 05:39:33;;;;;;;;;;;;;;;1.04;100.00;100146.25;5019545;28;20001;-77
2021/12/09 05:41:59;;;;;;;;;;;;;;;1.01;100.00;100143.47;5019583;28;20346;-80
2021/12/09 05:44:24;;;;;;;;;;;;;;;1.02;100.00;100146.94;5013490;28;20364;-76
2021/12/09 05:46:50;;;;;;;;;;;;;;;0.95;100.00;100153.44;5013269;28;19964;-76
2021/12/09 05:49:15;;;;;;;;;;;;;;;0.94;100.00;100151.66;5013886;28;19979;-77
2021/12/09 05:51:41;;;;;;;;;;;;;;;0.95;100.00;100148.25;5013410;28;19932;-77
2021/12/09 05:54:07;;;;;;;;;;;;;;;0.90;100.00;100144.47;5011564;28;20346;-79
2021/12/09 05:56:32;;;;;;;;;;;;;;;0.86;100.00;100145.97;5013027;28;19924;-80
2021/12/09 05:59:00;;;;;;;;;;;;;;;0.84;100.00;100150.19;5013637;28;19921;-79
2021/12/09 06:01:26;;;;;;;;;;;;;;;0.83;100.00;100157.84;5013325;28;20250;-79
2021/12/09 06:03:51;;;;;;;;;;;;;;;0.84;100.00;100159.63;4997686;28;20012;-79
2021/12/09 06:06:16;;;;;;;;;;;;;;;0.83;100.00;100158.75;5015182;28;19918;-79
2021/12/09 06:08:43;;;;;;;;;;;;;;;0.82;100.00;100156.94;5014218;28;19921;-77
2021/12/09 06:11:10;;;;;;;;;;;;;;;0.88;100.00;100170.28;5013870;28;19940;-79
2021/12/09 06:13:37;;;;;;;;;;;;;;;0.82;100.00;100174.19;4997082;28;19963;-79
2021/12/09 06:16:03;;;;;;;;;;;;;;;0.77;100.00;100165.25;5011060;28;20350;-79
2021/12/09 06:18:30;;;;;;;;;;;;;;;0.82;100.00;100164.72;5012709;28;19963;-76
2021/12/09 06:20:56;;;;;;;;;;;;;;;0.76;100.00;100164.31;5012615;28;20324;-79
2021/12/09 06:23:21;;;;;;;;;;;;;;;0.83;100.00;100165.63;5013610;28;20011;-80
2021/12/09 06:25:47;;;;;;;;;;;;;;;0.91;100.00;100160.94;5012786;28;19917;-80
2021/12/09 06:28:17;;;;;;;;;;;;;;;0.92;100.00;100168.81;5013692;28;19925;-81
2021/12/09 06:30:42;;;;;;;;;;;;;;;0.95;100.00;100165.50;5013361;28;19917;-79
2021/12/09 06:33:08;;;;;;;;;;;;;;;0.95;100.00;100163.81;5013816;28;20338;-77
2021/12/09 06:35:33;;;;;;;;;;;;;;;0.93;100.00;100157.63;5013469;28;19925;-77
2021/12/09 06:38:00;;;;;;;;;;;;;;;0.90;100.00;100165.19;5012933;28;19923;-80
2021/12/09 06:40:25;;;;;;;;;;;;;;;0.91;100.00;100155.75;5016411;28;20403;-80
2021/12/09 06:42:53;;;;;;;;;;;;;;;0.94;100.00;100159.41;5036251;28;19917;-80
2021/12/09 06:45:20;;;;;;;;;;;;;;;1.06;100.00;100161.91;5036442;28;19917;-77
2021/12/09 06:47:48;;;;;;;;;;;;;;;1.10;100.00;100160.38;5039543;28;20007;-80
2021/12/09 06:50:16;;;;;;;;;;;;;;;1.17;100.00;100165.16;5040253;28;19916;-80
2021/12/09 06:52:41;;;;;;;;;;;;;;;1.17;100.00;100154.81;5039942;28;20016;-78
2021/12/09 06:55:08;;;;;;;;;;;;;;;1.23;100.00;100160.38;5040471;28;20011;-81
2021/12/09 06:57:35;;;;;;;;;;;;;;;1.23;100.00;100162.97;5040652;28;19924;-81
2021/12/09 07:00:05;;;;;;;;;;;;;;;1.24;100.00;100165.66;5041090;28;19916;-80
2021/12/09 07:02:30;;;;;;;;;;;;;;;1.27;100.00;100171.81;5039974;28;19978;-80
2021/12/09 07:04:55;;;;;;;;;;;;;;;1.34;100.00;100174.88;5039900;28;20299;-79
2021/12/09 07:07:22;;;;;;;;;;;;;;;1.38;100.00;100171.69;5040026;28;19924;-80
2021/12/09 07:09:47;;;;;;;;;;;;;;;1.31;100.00;100172.09;5039630;28;19917;-78
2021/12/09 07:12:13;;;;;;;;;;;;;;;1.25;100.00;100174.31;5039511;28;20360;-77
2021/12/09 07:14:39;;;;;;;;;;;;;;;1.23;100.00;100178.53;5039919;28;19923;-80
2021/12/09 07:17:04;;;;;;;;;;;;;;;1.22;100.00;100179.31;5039506;28;20007;-81
2021/12/09 07:19:32;;;;;;;;;;;;;;;1.21;100.00;100181.03;5022077;28;19947;-80
2021/12/09 07:21:57;;;;;;;;;;;;;;;1.15;100.00;100172.84;5028872;28;19924;-79
2021/12/09 07:24:22;;;;;;;;;;;;;;;1.18;100.00;100174.72;5018566;28;20331;-80
2021/12/09 07:26:47;;;;;;;;;;;;;;;1.21;100.00;100178.44;5035161;28;19991;-79
2021/12/09 07:29:13;;;;;;;;;;;;;;;1.19;100.00;100181.72;5038403;28;19916;-77
2021/12/09 07:31:38;;;;;;;;;;;;;;;1.15;100.00;100188.41;5039149;28;19916;-79
2021/12/09 07:34:03;;;;;;;;;;;;;;;1.12;100.00;100185.63;5056065;28;19942;-79
2021/12/09 07:36:28;;;;;;;;;;;;;;;1.12;100.00;100193.41;5037931;28;20024;-77
2021/12/09 07:38:55;;;;;;;;;;;;;;;1.08;100.00;100192.28;5038343;28;20010;-79
2021/12/09 07:41:21;;;;;;;;;;;;;;;1.05;100.00;100199.00;5038178;28;19920;-80
2021/12/09 07:43:49;;;;;;;;;;;;;;;1.04;100.00;100197.19;5038962;28;20007;-81
2021/12/09 07:46:14;;;;;;;;;;;;;;;1.00;100.00;100198.69;5038255;28;19948;-80
2021/12/09 07:48:41;;;;;;;;;;;;;;;1.09;100.00;100203.59;5038838;28;20011;-80
2021/12/09 07:51:06;;;;;;;;;;;;;;;1.18;100.00;100195.47;5039173;28;19948;-80
2021/12/09 07:53:31;;;;;;;;;;;;;;;1.20;100.00;100202.56;5038587;28;20332;-80
2021/12/09 07:55:58;;;;;;;;;;;;;;;1.25;100.00;100205.44;5038397;28;19924;-79
2021/12/09 07:58:25;;;;;;;;;;;;;;;1.27;100.00;100205.53;5037779;28;19916;-79
2021/12/09 08:00:50;;;;;;;;;;;;;;;1.36;100.00;100209.59;5038198;28;19924;-80
2021/12/09 08:03:15;;;;;;;;;;;;;;;1.45;100.00;100216.19;5037462;28;20379;-80
2021/12/09 08:05:43;;;;;;;;;;;;;;;1.53;100.00;100214.94;5035719;28;19956;-79
2021/12/09 08:08:10;;;;;;;;;;;;;;;1.61;100.00;100212.00;5036296;28;19917;-80
2021/12/09 08:10:36;;;;;;;;;;;;;;;1.69;100.00;100214.19;5038302;28;19916;-80
2021/12/09 08:13:02;;;;;;;;;;;;;;;1.74;100.00;100220.53;5038577;28;19970;-79
2021/12/09 08:15:34;;;;;;;;;;;;;;;1.77;100.00;100218.13;5038249;28;19970;-80
2021/12/09 08:18:27;;;;;;;;;;;;;;;1.85;100.00;100227.31;5038206;28;19916;-81
2021/12/09 08:20:53;;;;;;;;;;;;;;;1.91;100.00;100232.88;5027542;28;19916;-79
2021/12/09 08:23:19;;;;;;;;;;;;;;;1.97;100.00;100240.13;5037728;28;19917;-80
2021/12/09 08:25:45;;;;;;;;;;;;;;;2.05;100.00;100223.31;5038047;28;19917;-79
2021/12/09 08:28:13;;;;;;;;;;;;;;;2.08;100.00;100236.50;5038033;28;19917;-80
2021/12/09 08:30:38;;;;;;;;;;;;;;;2.08;100.00;100236.50;5038335;28;19949;-79
2021/12/09 08:33:05;;;;;;;;;;;;;;;2.10;100.00;100228.78;5037612;28;20337;-80
2021/12/09 08:35:31;;;;;;;;;;;;;;;2.10;100.00;100226.19;5037725;28;19916;-80
2021/12/09 08:37:58;;;;;;;;;;;;;;;2.12;100.00;100227.16;5020651;28;19932;-79
2021/12/09 08:40:24;;;;;;;;;;;;;;;2.08;100.00;100227.78;5036347;28;19929;-80
2021/12/09 08:42:49;;;;;;;;;;;;;;;2.10;100.00;100223.59;5015443;28;19932;-80
2021/12/09 08:45:15;;;;;;;;;;;;;;;2.09;100.00;100235.66;5012555;28;20250;-80
2021/12/09 08:47:41;;;;;;;;;;;;;;;2.13;100.00;100227.25;4994921;28;19932;-80
2021/12/09 08:50:08;;;;;;;;;;;;;;;2.23;100.00;100233.00;5010637;28;19925;-77
2021/12/09 08:52:34;;;;;;;;;;;;;;;2.32;100.00;100236.16;5013854;28;19921;-78
2021/12/09 08:54:59;;;;;;;;;;;;;;;2.44;100.00;100239.47;5014039;28;20372;-80
2021/12/09 08:57:36;;;;;;;;;;;;;;;2.48;100.00;100237.94;5014128;28;19983;-77
2021/12/09 09:00:03;;;;;;;;;;;;;;;2.51;100.00;100228.59;5011910;28;19920;-80
2021/12/09 09:02:28;;;;;;;;;;;;;;;2.58;100.00;100239.34;5012882;28;19917;-80
2021/12/09 09:04:54;;;;;;;;;;;;;;;2.66;100.00;100239.00;5013743;28;19924;-78
2021/12/09 09:07:23;;;;;;;;;;;;;;;2.73;100.00;100240.25;5012883;28;19926;-78
2021/12/09 09:09:48;;;;;;;;;;;;;;;2.85;100.00;100235.75;5013538;28;19956;-80
2021/12/09 09:12:14;;;;;;;;;;;;;;;2.91;100.00;100242.13;5013596;28;20353;-76
2021/12/09 09:14:40;;;;;;;;;;;;;;;2.96;100.00;100238.06;5012151;28;19917;-78
2021/12/09 09:17:06;;;;;;;;;;;;;;;2.94;100.00;100239.69;5013225;28;19924;-78
2021/12/09 09:19:32;;;;;;;;;;;;;;;2.94;100.00;100240.59;4997391;28;19956;-79
2021/12/09 09:21:57;;;;;;;;;;;;;;;2.88;100.00;100248.91;5013287;28;20408;-78
2021/12/09 09:24:22;;;;;;;;;;;;;;;2.90;100.00;100253.31;5013116;28;19918;-77
2021/12/09 09:26:47;;;;;;;;;;;;;;;2.90;100.00;100256.81;5012592;28;19960;-78
2021/12/09 09:29:14;;;;;;;;;;;;;;;2.92;100.00;100251.69;5013252;28;19972;-77
2021/12/09 09:31:40;;;;;;;;;;;;;;;2.94;100.00;100257.91;5011344;28;19918;-79
2021/12/09 09:34:06;;;;;;;;;;;;;;;2.99;100.00;100259.06;5012795;28;20474;-77
2021/12/09 09:36:32;;;;;;;;;;;;;;;3.09;100.00;100250.06;5014492;28;19944;-78
2021/12/09 09:39:06;;;;;;;;;;;;;;;3.13;100.00;100247.72;5012829;28;19944;-78
2021/12/09 09:41:35;;;;;;;;;;;;;;;3.19;100.00;100250.66;5013747;28;19922;-78
2021/12/09 09:44:12;;;;;;;;;;;;;;;3.31;100.00;100246.94;5008665;28;19956;-79
2021/12/09 09:46:37;;;;;;;;;;;;;;;3.36;100.00;100246.38;5013670;28;19920;-77
2021/12/09 09:49:04;;;;;;;;;;;;;;;3.34;100.00;100257.50;5013387;28;19917;-77
2021/12/09 09:51:29;;;;;;;;;;;;;;;3.34;100.00;100262.72;5012275;28;20358;-78
2021/12/09 09:53:55;;;;;;;;;;;;;;;3.30;100.00;100268.59;5012848;28;19975;-77
2021/12/09 09:56:23;;;;;;;;;;;;;;;3.29;100.00;100280.69;5013367;28;20000;-78
2021/12/09 09:59:04;;;;;;;;;;;;;;;3.32;100.00;100286.06;5013587;28;19943;-79
2021/12/09 10:01:30;;;;;;;;;;;;;;;3.32;100.00;100279.97;5011914;28;19924;-78
2021/12/09 10:04:10;;;;;;;;;;;;;;;3.36;100.00;100281.94;5013725;28;19918;-78
2021/12/09 10:06:36;;;;;;;;;;;;;;;3.33;100.00;100286.97;5014448;28;20313;-78
2021/12/09 10:09:05;;;;;;;;;;;;;;;3.34;100.00;100286.16;5013186;28;19921;-77
2021/12/09 10:11:30;;;;;;;;;;;;;;;3.32;100.00;100287.78;5012837;28;19917;-78
2021/12/09 10:14:07;;;;;;;;;;;;;;;3.30;100.00;100285.09;5011711;28;19944;-78
2021/12/09 10:16:34;;;;;;;;;;;;;;;3.38;100.00;100285.53;5011419;28;20008;-80
2021/12/09 10:18:59;;;;;;;;;;;;;;;3.46;100.00;100286.81;5013240;28;19924;-80
2021/12/09 10:21:26;;;;;;;;;;;;;;;3.52;100.00;100276.75;5013795;28;19922;-80
2021/12/09 10:24:02;;;;;;;;;;;;;;;3.50;100.00;100281.00;5019878;28;19921;-81
2021/12/09 10:26:31;;;;;;;;;;;;;;;3.52;100.00;100283.69;5020128;28;20381;-79
2021/12/09 10:29:10;;;;;;;;;;;;;;;3.55;100.00;100279.53;5021484;28;19956;-79
2021/12/09 10:31:45;;;;;;;;;;;;;;;3.64;100.00;100286.06;5019943;28;19917;-80
2021/12/09 10:34:37;;;;;;;;;;;;;;;3.69;100.00;100285.50;5019716;28;20322;-79
2021/12/09 10:37:02;;;;;;;;;;;;;;;3.70;100.00;100283.81;5018968;28;20414;-80
2021/12/09 10:39:30;;;;;;;;;;;;;;;3.74;100.00;100280.53;5019239;28;20015;-77
2021/12/09 10:41:57;;;;;;;;;;;;;;;3.80;100.00;100279.97;5018726;28;19983;-79
2021/12/09 10:44:31;;;;;;;;;;;;;;;3.90;100.00;100277.03;5019466;28;19917;-81
2021/12/09 10:47:11;;;;;;;;;;;;;;;3.99;100.00;100287.94;5019001;28;19963;-80
2021/12/09 10:50:08;;;;;;;;;;;;;;;4.07;100.00;100275.31;5018980;28;19918;-78
2021/12/09 10:52:39;;;;;;;;;;;;;;;4.09;100.00;100273.72;4994867;28;20373;-79
2021/12/09 10:55:13;;;;;;;;;;;;;;;4.11;100.00;100275.56;4999550;28;19968;-78
2021/12/09 10:57:39;;;;;;;;;;;;;;;4.10;100.00;100268.59;5005374;28;20364;-78
2021/12/09 11:00:35;;;;;;;;;;;;;;;4.22;100.00;100265.72;5018935;28;20016;-78
2021/12/09 11:03:00;;;;;;;;;;;;;;;4.15;100.00;100266.22;4948113;28;19922;-79
2021/12/09 11:05:25;;;;;;;;;;;;;;;4.15;100.00;100271.44;4999777;28;19914;-80
2021/12/09 11:07:53;;;;;;;;;;;;;;;4.13;100.00;100273.03;5013188;28;19922;-79
2021/12/09 11:10:20;;;;;;;;;;;;;;;4.12;100.00;100271.28;5019440;28;19972;-78
2021/12/09 11:12:49;;;;;;;;;;;;;;;4.04;100.00;100275.16;5018930;28;19918;-78
2021/12/09 11:15:16;;;;;;;;;;;;;;;4.07;100.00;100267.50;5019248;28;20005;-79
2021/12/09 11:17:42;;;;;;;;;;;;;;;4.06;100.00;100257.94;5018329;28;19921;-78
2021/12/09 11:20:08;;;;;;;;;;;;;;;4.08;100.00;100264.97;5019506;28;19971;-78
2021/12/09 11:22:37;;;;;;;;;;;;;;;4.06;100.00;100266.63;5010206;28;19917;-79
2021/12/09 11:25:05;;;;;;;;;;;;;;;4.05;100.00;100256.13;5016007;28;19956;-80
2021/12/09 11:27:36;;;;;;;;;;;;;;;4.05;100.00;100259.59;5014310;28;20338;-78
2021/12/09 11:30:10;;;;;;;;;;;;;;;4.07;100.00;100258.00;4999315;28;19957;-78
2021/12/09 11:32:48;;;;;;;;;;;;;;;4.05;100.00;100250.91;5006078;28;19925;-79
2021/12/09 11:35:22;;;;;;;;;;;;;;;4.08;100.00;100249.34;5015500;28;19918;-78
2021/12/09 11:37:59;;;;;;;;;;;;;;;4.13;100.00;100252.19;5015099;28;20036;-76
2021/12/09 11:40:38;;;;;;;;;;;;;;;4.15;100.00;100253.19;5015783;28;19917;-79
2021/12/09 11:43:04;;;;;;;;;;;;;;;4.18;100.00;100250.75;5035502;28;20003;-79
2021/12/09 11:45:35;;;;;;;;;;;;;;;4.12;100.00;100247.81;5034971;28;19917;-78
2021/12/09 11:48:09;;;;;;;;;;;;;;;4.19;100.00;100249.03;5035099;28;19921;-79
2021/12/09 11:50:36;;;;;;;;;;;;;;;4.17;100.00;100240.25;5035253;28;19923;-78
2021/12/09 11:53:04;;;;;;;;;;;;;;;4.19;100.00;100246.41;5034507;28;20231;-79
2021/12/09 11:55:35;;;;;;;;;;;;;;;4.20;100.00;100250.84;5035441;28;19924;-79
2021/12/09 11:58:17;;;;;;;;;;;;;;;4.15;100.00;100247.97;5034207;28;19921;-80
2021/12/09 12:06:49;;;;;;;;;;;;;;;4.21;100.00;100243.09;5035613;28;20011;-78
2021/12/09 12:12:39;;;;;;;;;;;;;;;4.26;100.00;100253.75;5035976;28;19924;-78
2021/12/09 12:24:21;;;;;;;;;;;;;;;4.19;100.00;100236.00;5012584;28;19995;-79
2021/12/09 12:27:06;;;;;;;;;;;;;;;4.21;100.00;100235.28;5032975;28;19984;-79
2021/12/09 12:30:49;;;;;;;;;;;;;;;4.35;100.00;100235.97;5034647;28;20353;-79
2021/12/09 12:33:37;;;;;;;;;;;;;;;4.32;100.00;100233.22;5006572;28;20341;-79
2021/12/09 12:41:09;;;;;;;;;;;;;;;4.35;100.00;100235.97;5038326;28;20000;-79
2021/12/09 12:43:43;;;;;;;;;;;;;;;4.36;100.00;100232.53;5038212;28;19963;-79
2021/12/09 12:51:28;;;;;;;;;;;;;;;4.41;100.00;100236.28;5055239;28;19916;-77
2021/12/09 12:53:59;;;;;;;;;;;;;;;4.40;100.00;100234.50;5037603;28;19923;-79
2021/12/09 12:56:46;;;;;;;;;;;;;;;4.45;100.00;100239.94;5055378;28;19917;-79
2021/12/09 12:59:14;;;;;;;;;;;;;;;4.43;100.00;100241.59;5034471;28;20305;-79
2021/12/09 13:01:44;;;;;;;;;;;;;;;4.41;100.00;100240.59;5037804;28;19912;-78
2021/12/09 13:04:35;;;;;;;;;;;;;;;4.40;100.00;100238.81;5038621;28;19917;-79
2021/12/09 13:07:10;;;;;;;;;;;;;;;4.43;100.00;100241.59;5037201;28;19924;-79
2021/12/09 13:09:39;;;;;;;;;;;;;;;4.44;100.00;100235.53;5021257;28;20396;-80